Terminal Aerodrome Forecast
Issued by NWS Cleveland, OH

Home | Current Version | Previous Version | Text Only | Print | Product List | Glossary On
Versions: 1 2 3 4 5 6 7 8 9 10 11 12 13 14 15 16 17 18 19 20 21 22 23 24 25 26 27 28 29
000
FTUS41 KCLE 311100
TAFCLE
TAF
KCLE 311129Z 3112/0118 20008KT P6SM SCT070 BKN150
     FM010600 22008KT 6SM -SN OVC035
     FM010800 20005KT 3SM -SN OVC012
     FM011200 VRB04KT 1SM -SN OVC007
     FM011600 06010KT 1/2SM SN OVC005=

USA.gov is the U.S. government's official web portal to all federal, state and local government web resources and services.